sensor_id;sensor_type;location;lat;lon;timestamp;P1;durP1;ratioP1;P2;durP2;ratioP2
22614;SDS011;11474;50.790;0.298;2022-09-09T00:04:05;23.08;;;4.43;;
22614;SDS011;11474;50.790;0.298;2022-09-09T00:09:29;24.30;;;4.20;;
22614;SDS011;11474;50.790;0.298;2022-09-09T00:11:58;22.98;;;3.90;;
22614;SDS011;11474;50.790;0.298;2022-09-09T00:17:12;24.50;;;4.05;;
22614;SDS011;11474;50.790;0.298;2022-09-09T00:19:52;27.42;;;4.97;;
22614;SDS011;11474;50.790;0.298;2022-09-09T00:22:22;28.55;;;4.88;;
22614;SDS011;11474;50.790;0.298;2022-09-09T00:24:52;26.85;;;4.82;;
22614;SDS011;11474;50.790;0.298;2022-09-09T00:27:25;26.65;;;4.90;;
22614;SDS011;11474;50.790;0.298;2022-09-09T00:29:58;28.50;;;4.65;;
22614;SDS011;11474;50.790;0.298;2022-09-09T00:32:27;28.00;;;5.38;;
22614;SDS011;11474;50.790;0.298;2022-09-09T00:35:02;28.77;;;5.28;;
22614;SDS011;11474;50.790;0.298;2022-09-09T00:37:30;28.80;;;5.05;;
22614;SDS011;11474;50.790;0.298;2022-09-09T00:39:57;21.40;;;4.22;;
22614;SDS011;11474;50.790;0.298;2022-09-09T00:42:26;18.27;;;4.37;;
22614;SDS011;11474;50.790;0.298;2022-09-09T00:44:59;23.08;;;4.55;;
22614;SDS011;11474;50.790;0.298;2022-09-09T00:50:03;31.03;;;4.83;;
22614;SDS011;11474;50.790;0.298;2022-09-09T00:55:12;25.05;;;4.65;;
22614;SDS011;11474;50.790;0.298;2022-09-09T00:57:41;21.17;;;3.70;;
22614;SDS011;11474;50.790;0.298;2022-09-09T01:10:58;19.73;;;2.78;;
22614;SDS011;11474;50.790;0.298;2022-09-09T01:13:26;16.48;;;3.03;;
22614;SDS011;11474;50.790;0.298;2022-09-09T01:15:55;22.10;;;3.35;;
22614;SDS011;11474;50.790;0.298;2022-09-09T01:18:23;20.30;;;3.28;;
22614;SDS011;11474;50.790;0.298;2022-09-09T01:21:13;23.17;;;4.10;;
22614;SDS011;11474;50.790;0.298;2022-09-09T01:24:04;21.90;;;3.22;;
22614;SDS011;11474;50.790;0.298;2022-09-09T01:29:00;24.55;;;3.92;;
22614;SDS011;11474;50.790;0.298;2022-09-09T01:31:27;25.45;;;3.95;;
22614;SDS011;11474;50.790;0.298;2022-09-09T01:33:54;24.88;;;4.90;;
22614;SDS011;11474;50.790;0.298;2022-09-09T01:36:29;24.40;;;4.03;;
22614;SDS011;11474;50.790;0.298;2022-09-09T01:38:58;24.73;;;4.72;;
22614;SDS011;11474;50.790;0.298;2022-09-09T01:41:26;24.23;;;4.20;;
22614;SDS011;11474;50.790;0.298;2022-09-09T01:43:53;17.42;;;3.08;;
22614;SDS011;11474;50.790;0.298;2022-09-09T01:46:21;21.40;;;3.53;;
22614;SDS011;11474;50.790;0.298;2022-09-09T01:48:48;25.63;;;3.90;;
22614;SDS011;11474;50.790;0.298;2022-09-09T01:51:14;25.90;;;3.75;;
22614;SDS011;11474;50.790;0.298;2022-09-09T01:53:40;22.35;;;3.85;;
22614;SDS011;11474;50.790;0.298;2022-09-09T02:03:49;11.55;;;2.47;;
22614;SDS011;11474;50.790;0.298;2022-09-09T02:06:36;15.10;;;2.50;;
22614;SDS011;11474;50.790;0.298;2022-09-09T02:09:07;12.40;;;2.42;;
22614;SDS011;11474;50.790;0.298;2022-09-09T02:11:37;12.90;;;2.75;;
22614;SDS011;11474;50.790;0.298;2022-09-09T02:14:08;10.90;;;2.30;;
22614;SDS011;11474;50.790;0.298;2022-09-09T02:16:38;11.32;;;2.10;;
22614;SDS011;11474;50.790;0.298;2022-09-09T02:21:40;11.40;;;2.72;;
22614;SDS011;11474;50.790;0.298;2022-09-09T02:24:08;9.85;;;2.28;;
22614;SDS011;11474;50.790;0.298;2022-09-09T02:26:36;12.07;;;2.60;;
22614;SDS011;11474;50.790;0.298;2022-09-09T02:29:03;11.85;;;2.47;;
22614;SDS011;11474;50.790;0.298;2022-09-09T02:31:31;11.98;;;2.55;;
22614;SDS011;11474;50.790;0.298;2022-09-09T02:34:00;11.38;;;2.13;;
22614;SDS011;11474;50.790;0.298;2022-09-09T02:36:29;10.90;;;2.65;;
22614;SDS011;11474;50.790;0.298;2022-09-09T02:38:58;9.00;;;2.33;;
22614;SDS011;11474;50.790;0.298;2022-09-09T02:41:26;9.80;;;2.60;;
22614;SDS011;11474;50.790;0.298;2022-09-09T02:43:53;10.27;;;2.75;;
22614;SDS011;11474;50.790;0.298;2022-09-09T02:48:59;8.73;;;2.50;;
22614;SDS011;11474;50.790;0.298;2022-09-09T02:54:20;12.38;;;3.20;;
22614;SDS011;11474;50.790;0.298;2022-09-09T02:56:52;14.18;;;2.95;;
22614;SDS011;11474;50.790;0.298;2022-09-09T02:59:20;9.88;;;2.60;;
22614;SDS011;11474;50.790;0.298;2022-09-09T03:01:46;9.00;;;2.85;;
22614;SDS011;11474;50.790;0.298;2022-09-09T03:04:12;13.55;;;3.17;;
22614;SDS011;11474;50.790;0.298;2022-09-09T03:06:38;10.30;;;2.83;;
22614;SDS011;11474;50.790;0.298;2022-09-09T03:09:04;9.85;;;2.85;;
22614;SDS011;11474;50.790;0.298;2022-09-09T03:11:30;11.13;;;2.75;;
22614;SDS011;11474;50.790;0.298;2022-09-09T03:13:57;10.35;;;3.20;;
22614;SDS011;11474;50.790;0.298;2022-09-09T03:16:23;8.57;;;2.80;;
22614;SDS011;11474;50.790;0.298;2022-09-09T03:18:49;12.13;;;2.90;;
22614;SDS011;11474;50.790;0.298;2022-09-09T03:21:15;9.95;;;2.63;;
22614;SDS011;11474;50.790;0.298;2022-09-09T03:23:41;10.18;;;2.90;;
22614;SDS011;11474;50.790;0.298;2022-09-09T03:26:07;9.52;;;2.72;;
22614;SDS011;11474;50.790;0.298;2022-09-09T03:28:33;9.77;;;2.47;;
22614;SDS011;11474;50.790;0.298;2022-09-09T03:31:01;11.35;;;3.08;;
22614;SDS011;11474;50.790;0.298;2022-09-09T03:33:27;11.90;;;2.90;;
22614;SDS011;11474;50.790;0.298;2022-09-09T03:35:55;8.95;;;2.40;;
22614;SDS011;11474;50.790;0.298;2022-09-09T03:38:24;9.60;;;2.30;;
22614;SDS011;11474;50.790;0.298;2022-09-09T03:40:55;9.40;;;2.40;;
22614;SDS011;11474;50.790;0.298;2022-09-09T03:43:22;9.52;;;2.38;;
22614;SDS011;11474;50.790;0.298;2022-09-09T03:45:48;11.93;;;2.63;;
22614;SDS011;11474;50.790;0.298;2022-09-09T03:48:14;9.23;;;2.20;;
22614;SDS011;11474;50.790;0.298;2022-09-09T03:50:47;9.93;;;2.30;;
22614;SDS011;11474;50.790;0.298;2022-09-09T03:53:14;7.68;;;2.20;;
22614;SDS011;11474;50.790;0.298;2022-09-09T03:55:44;7.88;;;2.13;;
22614;SDS011;11474;50.790;0.298;2022-09-09T03:58:11;9.25;;;2.30;;
22614;SDS011;11474;50.790;0.298;2022-09-09T04:00:37;11.77;;;2.37;;
22614;SDS011;11474;50.790;0.298;2022-09-09T04:03:05;12.13;;;2.53;;
22614;SDS011;11474;50.790;0.298;2022-09-09T04:05:31;7.07;;;2.30;;
22614;SDS011;11474;50.790;0.298;2022-09-09T04:07:59;9.07;;;2.50;;
22614;SDS011;11474;50.790;0.298;2022-09-09T04:10:25;8.07;;;2.20;;
22614;SDS011;11474;50.790;0.298;2022-09-09T04:12:51;10.20;;;2.30;;
22614;SDS011;11474;50.790;0.298;2022-09-09T04:15:18;8.23;;;2.22;;
22614;SDS011;11474;50.790;0.298;2022-09-09T04:17:44;12.30;;;2.50;;
22614;SDS011;11474;50.790;0.298;2022-09-09T04:20:10;12.30;;;2.28;;
22614;SDS011;11474;50.790;0.298;2022-09-09T04:22:37;8.80;;;2.20;;
22614;SDS011;11474;50.790;0.298;2022-09-09T04:25:04;8.30;;;2.03;;
22614;SDS011;11474;50.790;0.298;2022-09-09T04:27:31;8.05;;;2.20;;
22614;SDS011;11474;50.790;0.298;2022-09-09T04:29:57;9.43;;;2.28;;
22614;SDS011;11474;50.790;0.298;2022-09-09T04:32:23;7.70;;;2.03;;
22614;SDS011;11474;50.790;0.298;2022-09-09T04:34:52;8.47;;;2.07;;
22614;SDS011;11474;50.790;0.298;2022-09-09T04:37:18;5.88;;;1.90;;
22614;SDS011;11474;50.790;0.298;2022-09-09T04:39:44;5.67;;;1.90;;
22614;SDS011;11474;50.790;0.298;2022-09-09T04:42:10;6.57;;;1.92;;
22614;SDS011;11474;50.790;0.298;2022-09-09T04:44:36;9.37;;;2.20;;
22614;SDS011;11474;50.790;0.298;2022-09-09T04:47:02;8.88;;;2.20;;
22614;SDS011;11474;50.790;0.298;2022-09-09T04:49:29;7.60;;;2.40;;
22614;SDS011;11474;50.790;0.298;2022-09-09T04:51:56;9.67;;;2.17;;
22614;SDS011;11474;50.790;0.298;2022-09-09T04:54:22;7.05;;;2.15;;
22614;SDS011;11474;50.790;0.298;2022-09-09T04:56:49;9.73;;;2.20;;
22614;SDS011;11474;50.790;0.298;2022-09-09T04:59:16;6.63;;;2.13;;
22614;SDS011;11474;50.790;0.298;2022-09-09T05:01:42;9.02;;;2.13;;
22614;SDS011;11474;50.790;0.298;2022-09-09T05:04:08;7.45;;;2.30;;
22614;SDS011;11474;50.790;0.298;2022-09-09T05:06:34;7.20;;;2.10;;
22614;SDS011;11474;50.790;0.298;2022-09-09T05:09:01;8.55;;;2.25;;
22614;SDS011;11474;50.790;0.298;2022-09-09T05:11:28;4.90;;;1.98;;
22614;SDS011;11474;50.790;0.298;2022-09-09T05:13:55;8.30;;;2.15;;
22614;SDS011;11474;50.790;0.298;2022-09-09T05:16:24;10.60;;;2.28;;
22614;SDS011;11474;50.790;0.298;2022-09-09T05:18:50;10.02;;;2.40;;
22614;SDS011;11474;50.790;0.298;2022-09-09T05:21:17;6.53;;;2.35;;
22614;SDS011;11474;50.790;0.298;2022-09-09T05:23:44;11.07;;;3.00;;
22614;SDS011;11474;50.790;0.298;2022-09-09T05:26:14;8.38;;;2.42;;
22614;SDS011;11474;50.790;0.298;2022-09-09T05:28:40;10.40;;;2.22;;
22614;SDS011;11474;50.790;0.298;2022-09-09T05:31:07;6.43;;;2.20;;
22614;SDS011;11474;50.790;0.298;2022-09-09T05:33:34;5.35;;;2.20;;
22614;SDS011;11474;50.790;0.298;2022-09-09T05:36:01;8.40;;;2.37;;
22614;SDS011;11474;50.790;0.298;2022-09-09T05:38:28;8.45;;;2.03;;
22614;SDS011;11474;50.790;0.298;2022-09-09T05:40:54;6.03;;;2.20;;
22614;SDS011;11474;50.790;0.298;2022-09-09T05:43:25;6.47;;;2.00;;
22614;SDS011;11474;50.790;0.298;2022-09-09T05:46:02;7.57;;;2.13;;
22614;SDS011;11474;50.790;0.298;2022-09-09T05:48:29;7.15;;;2.13;;
22614;SDS011;11474;50.790;0.298;2022-09-09T05:50:57;7.35;;;2.00;;
22614;SDS011;11474;50.790;0.298;2022-09-09T05:53:23;9.65;;;2.50;;
22614;SDS011;11474;50.790;0.298;2022-09-09T05:55:49;8.20;;;2.55;;
22614;SDS011;11474;50.790;0.298;2022-09-09T05:58:15;7.43;;;2.80;;
22614;SDS011;11474;50.790;0.298;2022-09-09T06:00:42;10.18;;;2.63;;
22614;SDS011;11474;50.790;0.298;2022-09-09T06:03:11;6.43;;;2.45;;
22614;SDS011;11474;50.790;0.298;2022-09-09T06:05:37;9.30;;;2.80;;
22614;SDS011;11474;50.790;0.298;2022-09-09T06:08:03;12.38;;;2.92;;
22614;SDS011;11474;50.790;0.298;2022-09-09T06:10:29;9.30;;;3.10;;
22614;SDS011;11474;50.790;0.298;2022-09-09T06:12:55;7.90;;;2.63;;
22614;SDS011;11474;50.790;0.298;2022-09-09T06:15:22;11.15;;;2.88;;
22614;SDS011;11474;50.790;0.298;2022-09-09T06:17:53;11.73;;;2.87;;
22614;SDS011;11474;50.790;0.298;2022-09-09T06:20:19;10.50;;;3.03;;
22614;SDS011;11474;50.790;0.298;2022-09-09T06:22:46;9.25;;;2.67;;
22614;SDS011;11474;50.790;0.298;2022-09-09T06:25:14;8.38;;;2.80;;
22614;SDS011;11474;50.790;0.298;2022-09-09T06:27:40;10.55;;;2.90;;
22614;SDS011;11474;50.790;0.298;2022-09-09T06:30:07;9.20;;;2.80;;
22614;SDS011;11474;50.790;0.298;2022-09-09T06:32:34;10.57;;;3.20;;
22614;SDS011;11474;50.790;0.298;2022-09-09T06:35:02;9.93;;;3.28;;
22614;SDS011;11474;50.790;0.298;2022-09-09T06:37:29;12.50;;;3.77;;
22614;SDS011;11474;50.790;0.298;2022-09-09T06:39:55;12.27;;;3.40;;
22614;SDS011;11474;50.790;0.298;2022-09-09T06:42:21;9.57;;;3.28;;
22614;SDS011;11474;50.790;0.298;2022-09-09T06:44:48;8.13;;;2.88;;
22614;SDS011;11474;50.790;0.298;2022-09-09T06:47:14;8.77;;;2.95;;
22614;SDS011;11474;50.790;0.298;2022-09-09T06:49:40;9.73;;;3.00;;
22614;SDS011;11474;50.790;0.298;2022-09-09T06:52:06;10.82;;;2.75;;
22614;SDS011;11474;50.790;0.298;2022-09-09T06:54:34;8.32;;;2.83;;
22614;SDS011;11474;50.790;0.298;2022-09-09T06:57:02;8.57;;;2.53;;
22614;SDS011;11474;50.790;0.298;2022-09-09T06:59:28;11.65;;;2.80;;
22614;SDS011;11474;50.790;0.298;2022-09-09T07:01:55;11.00;;;2.72;;
22614;SDS011;11474;50.790;0.298;2022-09-09T07:04:21;14.35;;;3.13;;
22614;SDS011;11474;50.790;0.298;2022-09-09T07:06:48;7.05;;;2.67;;
22614;SDS011;11474;50.790;0.298;2022-09-09T07:09:14;9.27;;;2.90;;
22614;SDS011;11474;50.790;0.298;2022-09-09T07:11:42;8.48;;;3.10;;
22614;SDS011;11474;50.790;0.298;2022-09-09T07:14:08;11.30;;;3.05;;
22614;SDS011;11474;50.790;0.298;2022-09-09T07:16:38;9.98;;;3.40;;
22614;SDS011;11474;50.790;0.298;2022-09-09T07:19:04;9.60;;;3.10;;
22614;SDS011;11474;50.790;0.298;2022-09-09T07:21:31;11.17;;;3.53;;
22614;SDS011;11474;50.790;0.298;2022-09-09T07:23:57;10.48;;;3.35;;
22614;SDS011;11474;50.790;0.298;2022-09-09T07:26:28;8.80;;;3.30;;
22614;SDS011;11474;50.790;0.298;2022-09-09T07:28:54;9.07;;;3.03;;
22614;SDS011;11474;50.790;0.298;2022-09-09T07:31:25;11.43;;;3.50;;
22614;SDS011;11474;50.790;0.298;2022-09-09T07:33:51;8.27;;;3.45;;
22614;SDS011;11474;50.790;0.298;2022-09-09T07:36:18;9.80;;;3.15;;
22614;SDS011;11474;50.790;0.298;2022-09-09T07:38:52;11.90;;;3.15;;
22614;SDS011;11474;50.790;0.298;2022-09-09T07:41:20;8.35;;;2.80;;
22614;SDS011;11474;50.790;0.298;2022-09-09T07:43:46;7.75;;;2.60;;
22614;SDS011;11474;50.790;0.298;2022-09-09T07:46:13;8.77;;;2.72;;
22614;SDS011;11474;50.790;0.298;2022-09-09T07:48:43;10.43;;;3.03;;
22614;SDS011;11474;50.790;0.298;2022-09-09T07:51:13;7.43;;;2.80;;
22614;SDS011;11474;50.790;0.298;2022-09-09T07:53:45;7.55;;;3.03;;
22614;SDS011;11474;50.790;0.298;2022-09-09T07:56:13;11.30;;;3.10;;
22614;SDS011;11474;50.790;0.298;2022-09-09T07:58:39;8.88;;;3.00;;
22614;SDS011;11474;50.790;0.298;2022-09-09T08:01:07;10.13;;;2.92;;
22614;SDS011;11474;50.790;0.298;2022-09-09T08:03:33;9.40;;;2.67;;
22614;SDS011;11474;50.790;0.298;2022-09-09T08:06:00;6.97;;;2.65;;
22614;SDS011;11474;50.790;0.298;2022-09-09T08:08:27;7.25;;;2.50;;
22614;SDS011;11474;50.790;0.298;2022-09-09T08:10:53;7.80;;;2.80;;
22614;SDS011;11474;50.790;0.298;2022-09-09T08:13:19;7.65;;;2.40;;
22614;SDS011;11474;50.790;0.298;2022-09-09T08:15:45;6.82;;;2.13;;
22614;SDS011;11474;50.790;0.298;2022-09-09T08:18:11;6.88;;;2.58;;
22614;SDS011;11474;50.790;0.298;2022-09-09T08:20:37;10.77;;;2.50;;
22614;SDS011;11474;50.790;0.298;2022-09-09T08:23:03;5.18;;;2.20;;
22614;SDS011;11474;50.790;0.298;2022-09-09T08:25:30;6.30;;;2.35;;
22614;SDS011;11474;50.790;0.298;2022-09-09T08:27:56;7.43;;;2.30;;
22614;SDS011;11474;50.790;0.298;2022-09-09T08:30:22;5.78;;;2.30;;
22614;SDS011;11474;50.790;0.298;2022-09-09T08:32:48;7.13;;;2.30;;
22614;SDS011;11474;50.790;0.298;2022-09-09T08:35:16;6.78;;;2.20;;
22614;SDS011;11474;50.790;0.298;2022-09-09T08:37:42;6.90;;;2.40;;
22614;SDS011;11474;50.790;0.298;2022-09-09T08:40:10;6.65;;;2.40;;
22614;SDS011;11474;50.790;0.298;2022-09-09T08:42:46;6.10;;;2.33;;
22614;SDS011;11474;50.790;0.298;2022-09-09T08:45:19;7.63;;;2.65;;
22614;SDS011;11474;50.790;0.298;2022-09-09T08:57:53;7.60;;;2.80;;
22614;SDS011;11474;50.790;0.298;2022-09-09T09:00:20;10.55;;;3.40;;
22614;SDS011;11474;50.790;0.298;2022-09-09T09:05:27;9.63;;;3.40;;
22614;SDS011;11474;50.790;0.298;2022-09-09T09:08:08;9.80;;;3.43;;
22614;SDS011;11474;50.790;0.298;2022-09-09T09:13:07;7.40;;;3.45;;
22614;SDS011;11474;50.790;0.298;2022-09-09T09:15:36;10.98;;;3.67;;
22614;SDS011;11474;50.790;0.298;2022-09-09T09:18:03;10.10;;;3.22;;
22614;SDS011;11474;50.790;0.298;2022-09-09T09:23:06;5.53;;;2.77;;
22614;SDS011;11474;50.790;0.298;2022-09-09T09:25:35;7.75;;;3.42;;
22614;SDS011;11474;50.790;0.298;2022-09-09T09:28:15;7.50;;;3.13;;
22614;SDS011;11474;50.790;0.298;2022-09-09T09:30:54;6.80;;;3.42;;
22614;SDS011;11474;50.790;0.298;2022-09-09T09:33:27;10.48;;;3.40;;
22614;SDS011;11474;50.790;0.298;2022-09-09T09:35:56;10.38;;;3.38;;
22614;SDS011;11474;50.790;0.298;2022-09-09T09:38:25;10.15;;;3.40;;
22614;SDS011;11474;50.790;0.298;2022-09-09T09:40:53;11.57;;;3.83;;
22614;SDS011;11474;50.790;0.298;2022-09-09T09:43:35;9.75;;;3.50;;
22614;SDS011;11474;50.790;0.298;2022-09-09T09:46:05;9.68;;;3.35;;
22614;SDS011;11474;50.790;0.298;2022-09-09T09:48:43;9.27;;;3.22;;
22614;SDS011;11474;50.790;0.298;2022-09-09T09:51:12;10.03;;;3.10;;
22614;SDS011;11474;50.790;0.298;2022-09-09T09:53:41;6.00;;;2.67;;
22614;SDS011;11474;50.790;0.298;2022-09-09T09:56:08;8.68;;;3.47;;
22614;SDS011;11474;50.790;0.298;2022-09-09T10:01:04;7.97;;;2.90;;
22614;SDS011;11474;50.790;0.298;2022-09-09T10:03:32;9.00;;;2.75;;
22614;SDS011;11474;50.790;0.298;2022-09-09T10:06:04;9.80;;;3.08;;
22614;SDS011;11474;50.790;0.298;2022-09-09T10:08:33;9.55;;;3.28;;
22614;SDS011;11474;50.790;0.298;2022-09-09T10:16:33;10.38;;;3.05;;
22614;SDS011;11474;50.790;0.298;2022-09-09T10:21:49;10.10;;;2.90;;
22614;SDS011;11474;50.790;0.298;2022-09-09T10:40:22;7.80;;;2.65;;
22614;SDS011;11474;50.790;0.298;2022-09-09T10:42:52;10.10;;;2.43;;
22614;SDS011;11474;50.790;0.298;2022-09-09T10:45:27;9.50;;;2.88;;
22614;SDS011;11474;50.790;0.298;2022-09-09T10:55:40;7.40;;;2.30;;
22614;SDS011;11474;50.790;0.298;2022-09-09T10:58:09;7.32;;;2.08;;
22614;SDS011;11474;50.790;0.298;2022-09-09T11:03:02;6.43;;;2.17;;
22614;SDS011;11474;50.790;0.298;2022-09-09T11:08:21;7.10;;;2.30;;
22614;SDS011;11474;50.790;0.298;2022-09-09T11:13:24;7.95;;;2.33;;
22614;SDS011;11474;50.790;0.298;2022-09-09T11:15:54;9.52;;;2.45;;
22614;SDS011;11474;50.790;0.298;2022-09-09T11:18:23;7.43;;;2.22;;
22614;SDS011;11474;50.790;0.298;2022-09-09T11:20:54;6.38;;;2.00;;
22614;SDS011;11474;50.790;0.298;2022-09-09T11:23:33;7.83;;;2.20;;
22614;SDS011;11474;50.790;0.298;2022-09-09T11:26:02;8.73;;;2.00;;
22614;SDS011;11474;50.790;0.298;2022-09-09T11:28:40;5.88;;;1.90;;
22614;SDS011;11474;50.790;0.298;2022-09-09T11:34:01;5.50;;;1.60;;
22614;SDS011;11474;50.790;0.298;2022-09-09T11:41:40;4.60;;;1.60;;
22614;SDS011;11474;50.790;0.298;2022-09-09T11:44:15;5.30;;;1.60;;
22614;SDS011;11474;50.790;0.298;2022-09-09T11:46:43;4.82;;;1.50;;
22614;SDS011;11474;50.790;0.298;2022-09-09T11:49:54;6.88;;;1.40;;
22614;SDS011;11474;50.790;0.298;2022-09-09T11:52:10;7.32;;;1.95;;
22614;SDS011;11474;50.790;0.298;2022-09-09T11:54:44;8.02;;;1.90;;
22614;SDS011;11474;50.790;0.298;2022-09-09T11:57:20;6.47;;;2.13;;
22614;SDS011;11474;50.790;0.298;2022-09-09T11:59:52;6.03;;;1.77;;
22614;SDS011;11474;50.790;0.298;2022-09-09T12:02:22;9.00;;;1.98;;
22614;SDS011;11474;50.790;0.298;2022-09-09T12:07:30;9.32;;;2.00;;
22614;SDS011;11474;50.790;0.298;2022-09-09T12:12:42;7.30;;;1.60;;
22614;SDS011;11474;50.790;0.298;2022-09-09T12:20:14;6.75;;;1.92;;
22614;SDS011;11474;50.790;0.298;2022-09-09T12:25:18;8.27;;;2.38;;
22614;SDS011;11474;50.790;0.298;2022-09-09T12:33:09;9.93;;;2.00;;
22614;SDS011;11474;50.790;0.298;2022-09-09T12:35:36;9.07;;;2.10;;
22614;SDS011;11474;50.790;0.298;2022-09-09T12:38:03;7.47;;;1.83;;
22614;SDS011;11474;50.790;0.298;2022-09-09T12:40:35;8.10;;;1.90;;
22614;SDS011;11474;50.790;0.298;2022-09-09T12:43:23;9.20;;;1.70;;
22614;SDS011;11474;50.790;0.298;2022-09-09T12:45:47;5.60;;;1.83;;
22614;SDS011;11474;50.790;0.298;2022-09-09T12:48:15;6.95;;;1.77;;
22614;SDS011;11474;50.790;0.298;2022-09-09T12:50:48;7.38;;;1.75;;
22614;SDS011;11474;50.790;0.298;2022-09-09T12:53:21;7.28;;;1.80;;
22614;SDS011;11474;50.790;0.298;2022-09-09T12:55:50;5.43;;;1.60;;
22614;SDS011;11474;50.790;0.298;2022-09-09T12:58:17;8.60;;;1.90;;
22614;SDS011;11474;50.790;0.298;2022-09-09T13:00:51;7.38;;;1.90;;
22614;SDS011;11474;50.790;0.298;2022-09-09T13:03:18;8.05;;;2.10;;
22614;SDS011;11474;50.790;0.298;2022-09-09T13:05:45;6.55;;;2.03;;
22614;SDS011;11474;50.790;0.298;2022-09-09T13:08:13;8.40;;;1.67;;
22614;SDS011;11474;50.790;0.298;2022-09-09T13:10:42;8.52;;;1.92;;
22614;SDS011;11474;50.790;0.298;2022-09-09T13:13:16;8.18;;;1.90;;
22614;SDS011;11474;50.790;0.298;2022-09-09T13:15:50;10.47;;;2.00;;
22614;SDS011;11474;50.790;0.298;2022-09-09T13:18:16;8.00;;;1.70;;
22614;SDS011;11474;50.790;0.298;2022-09-09T13:20:48;11.90;;;2.10;;
22614;SDS011;11474;50.790;0.298;2022-09-09T13:23:14;11.65;;;2.75;;
22614;SDS011;11474;50.790;0.298;2022-09-09T13:25:42;9.18;;;2.08;;
22614;SDS011;11474;50.790;0.298;2022-09-09T13:28:20;8.30;;;1.88;;
22614;SDS011;11474;50.790;0.298;2022-09-09T13:30:54;10.77;;;2.13;;
22614;SDS011;11474;50.790;0.298;2022-09-09T13:33:28;7.85;;;1.80;;
22614;SDS011;11474;50.790;0.298;2022-09-09T13:35:55;9.63;;;1.98;;
22614;SDS011;11474;50.790;0.298;2022-09-09T13:38:22;8.05;;;2.50;;
22614;SDS011;11474;50.790;0.298;2022-09-09T13:43:23;6.82;;;1.70;;
22614;SDS011;11474;50.790;0.298;2022-09-09T13:45:53;8.35;;;2.00;;
22614;SDS011;11474;50.790;0.298;2022-09-09T13:48:20;8.35;;;1.92;;
22614;SDS011;11474;50.790;0.298;2022-09-09T13:50:56;7.40;;;1.90;;
22614;SDS011;11474;50.790;0.298;2022-09-09T13:53:22;9.82;;;1.67;;
22614;SDS011;11474;50.790;0.298;2022-09-09T13:55:48;7.22;;;1.70;;
22614;SDS011;11474;50.790;0.298;2022-09-09T13:58:16;5.73;;;1.90;;
22614;SDS011;11474;50.790;0.298;2022-09-09T14:00:44;7.05;;;1.90;;
22614;SDS011;11474;50.790;0.298;2022-09-09T14:03:11;5.97;;;1.70;;
22614;SDS011;11474;50.790;0.298;2022-09-09T14:05:37;3.72;;;1.50;;
22614;SDS011;11474;50.790;0.298;2022-09-09T14:08:03;6.70;;;1.63;;
22614;SDS011;11474;50.790;0.298;2022-09-09T14:10:30;7.57;;;1.73;;
22614;SDS011;11474;50.790;0.298;2022-09-09T14:12:56;6.93;;;1.67;;
22614;SDS011;11474;50.790;0.298;2022-09-09T14:15:23;7.35;;;1.80;;
22614;SDS011;11474;50.790;0.298;2022-09-09T14:17:49;6.30;;;1.40;;
22614;SDS011;11474;50.790;0.298;2022-09-09T14:20:17;5.65;;;1.60;;
22614;SDS011;11474;50.790;0.298;2022-09-09T14:22:44;6.90;;;2.43;;
22614;SDS011;11474;50.790;0.298;2022-09-09T14:25:10;6.13;;;2.00;;
22614;SDS011;11474;50.790;0.298;2022-09-09T14:27:38;5.47;;;1.60;;
22614;SDS011;11474;50.790;0.298;2022-09-09T14:30:05;5.93;;;1.75;;
22614;SDS011;11474;50.790;0.298;2022-09-09T14:32:32;5.72;;;1.60;;
22614;SDS011;11474;50.790;0.298;2022-09-09T14:34:58;5.03;;;1.55;;
22614;SDS011;11474;50.790;0.298;2022-09-09T14:37:24;8.48;;;2.08;;
22614;SDS011;11474;50.790;0.298;2022-09-09T14:39:52;5.57;;;1.90;;
22614;SDS011;11474;50.790;0.298;2022-09-09T14:42:19;8.50;;;2.35;;
22614;SDS011;11474;50.790;0.298;2022-09-09T14:44:45;4.75;;;1.75;;
22614;SDS011;11474;50.790;0.298;2022-09-09T14:47:12;6.60;;;1.92;;
22614;SDS011;11474;50.790;0.298;2022-09-09T14:49:38;7.83;;;1.80;;
22614;SDS011;11474;50.790;0.298;2022-09-09T14:52:04;6.70;;;2.00;;
22614;SDS011;11474;50.790;0.298;2022-09-09T14:54:31;5.17;;;1.60;;
22614;SDS011;11474;50.790;0.298;2022-09-09T14:56:57;7.10;;;1.75;;
22614;SDS011;11474;50.790;0.298;2022-09-09T14:59:24;5.85;;;2.13;;
22614;SDS011;11474;50.790;0.298;2022-09-09T15:01:51;8.35;;;1.85;;
22614;SDS011;11474;50.790;0.298;2022-09-09T15:04:18;4.00;;;1.40;;
22614;SDS011;11474;50.790;0.298;2022-09-09T15:06:44;5.97;;;1.70;;
22614;SDS011;11474;50.790;0.298;2022-09-09T15:09:13;5.13;;;1.33;;
22614;SDS011;11474;50.790;0.298;2022-09-09T15:11:39;5.22;;;1.50;;
22614;SDS011;11474;50.790;0.298;2022-09-09T15:14:05;4.20;;;1.30;;
22614;SDS011;11474;50.790;0.298;2022-09-09T15:16:32;2.80;;;1.38;;
22614;SDS011;11474;50.790;0.298;2022-09-09T15:18:59;2.75;;;1.48;;
22614;SDS011;11474;50.790;0.298;2022-09-09T15:21:27;2.95;;;1.48;;
22614;SDS011;11474;50.790;0.298;2022-09-09T15:23:54;7.10;;;1.77;;
22614;SDS011;11474;50.790;0.298;2022-09-09T15:26:20;5.53;;;1.70;;
22614;SDS011;11474;50.790;0.298;2022-09-09T15:28:46;3.95;;;1.50;;
22614;SDS011;11474;50.790;0.298;2022-09-09T15:31:22;7.30;;;1.73;;
22614;SDS011;11474;50.790;0.298;2022-09-09T15:36:24;4.32;;;1.55;;
22614;SDS011;11474;50.790;0.298;2022-09-09T15:38:51;6.13;;;1.47;;
22614;SDS011;11474;50.790;0.298;2022-09-09T15:41:18;4.95;;;1.60;;
22614;SDS011;11474;50.790;0.298;2022-09-09T15:43:45;3.97;;;1.50;;
22614;SDS011;11474;50.790;0.298;2022-09-09T15:49:04;5.72;;;1.77;;
22614;SDS011;11474;50.790;0.298;2022-09-09T15:51:30;5.80;;;1.70;;
22614;SDS011;11474;50.790;0.298;2022-09-09T15:53:57;5.15;;;1.75;;
22614;SDS011;11474;50.790;0.298;2022-09-09T15:56:24;5.13;;;1.50;;
22614;SDS011;11474;50.790;0.298;2022-09-09T15:58:52;6.55;;;1.48;;
22614;SDS011;11474;50.790;0.298;2022-09-09T16:01:19;5.28;;;1.52;;
22614;SDS011;11474;50.790;0.298;2022-09-09T16:03:45;5.50;;;1.40;;
22614;SDS011;11474;50.790;0.298;2022-09-09T16:06:12;5.28;;;1.40;;
22614;SDS011;11474;50.790;0.298;2022-09-09T16:08:40;4.10;;;1.30;;
22614;SDS011;11474;50.790;0.298;2022-09-09T16:11:13;4.50;;;1.42;;
22614;SDS011;11474;50.790;0.298;2022-09-09T16:13:40;3.47;;;1.33;;
22614;SDS011;11474;50.790;0.298;2022-09-09T16:16:07;4.68;;;1.55;;
22614;SDS011;11474;50.790;0.298;2022-09-09T16:18:37;5.65;;;1.77;;
22614;SDS011;11474;50.790;0.298;2022-09-09T16:21:03;5.57;;;1.60;;
22614;SDS011;11474;50.790;0.298;2022-09-09T16:23:31;6.88;;;1.73;;
22614;SDS011;11474;50.790;0.298;2022-09-09T16:25:57;5.28;;;1.67;;
22614;SDS011;11474;50.790;0.298;2022-09-09T16:28:23;7.63;;;1.75;;
22614;SDS011;11474;50.790;0.298;2022-09-09T16:30:49;4.78;;;1.48;;
22614;SDS011;11474;50.790;0.298;2022-09-09T16:33:16;7.45;;;1.90;;
22614;SDS011;11474;50.790;0.298;2022-09-09T16:35:42;7.15;;;2.03;;
22614;SDS011;11474;50.790;0.298;2022-09-09T16:38:09;6.28;;;2.10;;
22614;SDS011;11474;50.790;0.298;2022-09-09T16:40:35;8.23;;;2.22;;
22614;SDS011;11474;50.790;0.298;2022-09-09T16:43:02;7.45;;;2.20;;
22614;SDS011;11474;50.790;0.298;2022-09-09T16:45:28;6.60;;;1.92;;
22614;SDS011;11474;50.790;0.298;2022-09-09T16:47:55;6.72;;;1.95;;
22614;SDS011;11474;50.790;0.298;2022-09-09T16:50:21;7.38;;;1.73;;
22614;SDS011;11474;50.790;0.298;2022-09-09T16:52:47;8.18;;;2.10;;
22614;SDS011;11474;50.790;0.298;2022-09-09T16:55:13;9.25;;;2.20;;
22614;SDS011;11474;50.790;0.298;2022-09-09T16:57:39;9.27;;;1.92;;
22614;SDS011;11474;50.790;0.298;2022-09-09T17:00:06;10.90;;;2.30;;
22614;SDS011;11474;50.790;0.298;2022-09-09T17:02:33;7.25;;;1.92;;
22614;SDS011;11474;50.790;0.298;2022-09-09T17:04:59;6.72;;;1.98;;
22614;SDS011;11474;50.790;0.298;2022-09-09T17:07:25;7.68;;;2.05;;